Time;durP1;ratioP1;P1;durP2;ratioP2;P2;SDS_P1;SDS_P2;PMS_P1;PMS_P2;Temp;Humidity;BMP_temperature;BMP_pressure;BME280_temperature;BME280_humidity;BME280_pressure;Samples;Min_cycle;Max_cycle;Signal;HPM_P1;HPM_P2
2022/07/26 00:00:45;;;;;;;2.90;1.57;;;;;;;22.39;60.95;98616.06;5010771;28;20245;-61
2022/07/26 00:03:12;;;;;;;2.20;1.80;;;;;;;22.24;61.33;98608.53;5002676;28;20209;-61
2022/07/26 00:05:40;;;;;;;2.20;1.50;;;;;;;22.15;62.87;98597.41;5009862;28;20189;-61
2022/07/26 00:08:26;;;;;;;2.67;1.40;;;;;;;21.99;66.17;98598.06;5012748;28;20210;-61
2022/07/26 00:10:53;;;;;;;2.97;1.43;;;;;;;21.84;68.39;98604.59;5020837;28;20187;-61
2022/07/26 00:13:21;;;;;;;2.67;1.47;;;;;;;21.52;71.24;98602.91;5031778;28;20272;-61
2022/07/26 00:15:49;;;;;;;3.40;1.90;;;;;;;21.15;74.57;98604.78;5031977;28;20730;-61
2022/07/26 00:18:16;;;;;;;3.83;1.80;;;;;;;20.91;77.06;98596.66;5032160;28;20579;-61
2022/07/26 00:20:45;;;;;;;6.60;1.60;;;;;;;20.72;78.38;98591.28;5031926;28;20232;-61
2022/07/26 00:23:12;;;;;;;2.20;1.43;;;;;;;20.63;79.14;98593.41;5025473;28;20304;-61
2022/07/26 00:25:39;;;;;;;3.37;1.67;;;;;;;20.46;80.40;98590.47;5016240;28;20202;-61
2022/07/26 00:28:25;;;;;;;4.83;1.77;;;;;;;20.38;80.19;98581.97;5014326;28;20212;-61
2022/07/26 00:30:52;;;;;;;1.90;1.47;;;;;;;20.37;80.39;98583.81;5014866;28;20205;-61
2022/07/26 00:33:18;;;;;;;3.33;1.60;;;;;;;20.32;79.69;98587.09;5014380;28;20293;-61
2022/07/26 00:35:47;;;;;;;2.87;1.43;;;;;;;20.27;81.35;98588.75;5012841;28;20190;-61
2022/07/26 00:38:13;;;;;;;3.23;1.60;;;;;;;20.25;83.42;98596.13;5013158;28;20201;-61
2022/07/26 00:40:40;;;;;;;2.00;1.43;;;;;;;20.20;84.24;98588.81;5016128;28;20610;-61
2022/07/26 00:43:07;;;;;;;2.00;1.60;;;;;;;20.18;85.69;98598.81;5014082;28;20288;-61
2022/07/26 00:45:34;;;;;;;3.37;1.33;;;;;;;20.13;82.78;98601.31;5014043;28;20229;-61
2022/07/26 00:48:00;;;;;;;3.97;1.80;;;;;;;20.06;84.91;98602.16;5014397;28;20348;-62
2022/07/26 00:50:27;;;;;;;3.37;1.50;;;;;;;20.12;85.26;98607.63;4997842;28;20287;-61
2022/07/26 00:52:55;;;;;;;3.77;1.50;;;;;;;20.02;86.19;98608.09;5014702;28;20841;-61
2022/07/26 00:55:22;;;;;;;4.07;1.73;;;;;;;19.95;86.53;98600.19;5014572;28;20194;-61
2022/07/26 00:57:50;;;;;;;4.20;1.77;;;;;;;19.90;85.77;98606.13;5015503;28;20234;-61
2022/07/26 01:00:19;;;;;;;3.40;1.57;;;;;;;19.89;85.98;98604.50;5011892;28;20214;-61
2022/07/26 01:02:46;;;;;;;2.13;1.20;;;;;;;19.82;87.88;98608.16;5012618;28;20217;-61
2022/07/26 01:05:12;;;;;;;3.20;1.60;;;;;;;19.83;88.20;98617.75;5014232;28;20761;-61
2022/07/26 01:07:40;;;;;;;2.40;1.60;;;;;;;19.86;87.85;98614.66;5016201;28;20473;-61
2022/07/26 01:10:12;;;;;;;3.43;1.60;;;;;;;19.84;89.15;98619.38;5014600;28;20329;-61
2022/07/26 01:12:39;;;;;;;5.50;1.50;;;;;;;19.82;85.33;98614.28;5014262;28;20295;-61
2022/07/26 01:15:08;;;;;;;1.50;1.20;;;;;;;19.86;83.38;98610.19;5014435;28;20216;-61
2022/07/26 01:17:35;;;;;;;1.80;1.43;;;;;;;19.92;86.05;98611.22;5016588;28;20572;-61
2022/07/26 01:20:02;;;;;;;1.87;1.60;;;;;;;19.95;85.37;98616.09;5031230;28;20209;-61
2022/07/26 01:22:30;;;;;;;4.60;1.67;;;;;;;19.96;86.08;98620.34;5030065;28;20273;-61
2022/07/26 01:24:57;;;;;;;2.20;1.50;;;;;;;19.99;85.44;98606.69;5011760;28;20219;-61
2022/07/26 01:27:24;;;;;;;3.47;1.50;;;;;;;19.91;84.74;98606.94;5016823;28;20206;-61
2022/07/26 01:29:51;;;;;;;2.67;1.30;;;;;;;19.95;84.50;98621.38;5011682;28;20179;-61
2022/07/26 01:32:18;;;;;;;1.73;1.33;;;;;;;19.90;84.88;98614.09;5011238;28;20610;-61
2022/07/26 01:34:45;;;;;;;2.03;1.40;;;;;;;19.93;84.48;98606.72;5011957;28;20202;-61
2022/07/26 01:37:12;;;;;;;3.07;1.30;;;;;;;19.97;80.86;98603.44;5011717;28;20607;-61
2022/07/26 01:39:41;;;;;;;2.80;1.40;;;;;;;20.02;81.86;98613.41;5011507;28;20254;-61
2022/07/26 01:42:08;;;;;;;3.87;1.60;;;;;;;20.13;83.30;98625.97;5011487;28;20234;-61
2022/07/26 01:44:35;;;;;;;2.27;1.30;;;;;;;20.13;82.74;98627.81;5011844;28;20259;-62
2022/07/26 01:47:02;;;;;;;2.40;1.30;;;;;;;20.12;80.38;98632.31;5012046;28;20209;-62
2022/07/26 01:49:29;;;;;;;1.50;1.20;;;;;;;20.17;80.38;98631.66;5015255;28;20538;-62
2022/07/26 01:51:56;;;;;;;3.13;1.30;;;;;;;20.19;78.88;98635.69;5015152;28;20211;-62
2022/07/26 01:54:22;;;;;;;2.30;1.60;;;;;;;20.24;79.21;98636.91;5015294;28;20548;-62
2022/07/26 01:56:50;;;;;;;3.50;1.50;;;;;;;20.24;78.72;98635.06;5015120;28;20520;-62
2022/07/26 01:59:17;;;;;;;2.20;1.50;;;;;;;20.25;79.84;98639.34;5015061;28;20270;-62
2022/07/26 02:01:44;;;;;;;5.20;1.47;;;;;;;20.19;82.06;98634.91;5014836;28;20648;-62
2022/07/26 02:04:57;;;;;;;2.60;1.50;;;;;;;20.11;82.08;98630.69;5014811;28;20746;-62
2022/07/26 02:06:58;;;;;;;2.63;1.40;;;;;;;20.04;83.26;98632.56;5013407;28;20211;-62
2022/07/26 02:09:25;;;;;;;3.77;1.70;;;;;;;19.97;84.39;98648.47;5017253;28;20284;-61
2022/07/26 02:11:53;;;;;;;3.07;2.07;;;;;;;19.87;86.60;98643.59;5018609;28;20210;-61
2022/07/26 02:14:20;;;;;;;1.77;1.43;;;;;;;19.88;88.40;98644.41;5013543;28;20209;-61
2022/07/26 02:16:46;;;;;;;1.70;1.50;;;;;;;19.81;87.50;98647.09;5034375;28;20214;-61
2022/07/26 02:19:13;;;;;;;3.27;1.87;;;;;;;19.80;88.29;98649.94;5029488;28;20215;-61
2022/07/26 02:21:40;;;;;;;3.20;1.60;;;;;;;19.68;87.14;98644.50;5033252;28;20201;-61
2022/07/26 02:24:07;;;;;;;2.67;1.60;;;;;;;19.68;88.27;98652.44;5034190;28;20719;-61
2022/07/26 02:26:34;;;;;;;1.83;1.57;;;;;;;19.57;86.89;98646.78;5034211;28;20205;-61
2022/07/26 02:29:02;;;;;;;5.00;1.67;;;;;;;19.53;86.02;98642.91;5034138;28;20183;-61
2022/07/26 02:31:29;;;;;;;3.20;1.80;;;;;;;19.53;86.42;98647.41;5020677;28;20195;-61
2022/07/26 02:33:56;;;;;;;2.60;1.60;;;;;;;19.63;84.93;98653.06;5014430;28;20199;-61
2022/07/26 02:36:23;;;;;;;2.33;1.50;;;;;;;19.64;85.50;98652.03;5014690;28;20202;-61
2022/07/26 02:38:50;;;;;;;5.60;1.90;;;;;;;19.69;85.31;98651.44;5014090;28;20199;-61
2022/07/26 02:41:16;;;;;;;4.20;1.87;;;;;;;19.72;83.31;98646.50;5014453;28;20202;-61
2022/07/26 02:43:43;;;;;;;2.50;1.70;;;;;;;19.70;82.16;98647.75;5014041;28;20250;-61
2022/07/26 02:46:11;;;;;;;2.50;1.80;;;;;;;19.75;83.27;98640.00;5014378;28;20737;-61
2022/07/26 02:48:38;;;;;;;4.43;2.03;;;;;;;19.68;82.84;98637.34;5013990;28;20185;-61
2022/07/26 02:51:05;;;;;;;4.33;1.80;;;;;;;19.70;82.64;98627.38;5014296;28;20586;-61
2022/07/26 02:53:32;;;;;;;3.90;1.90;;;;;;;19.65;81.20;98634.31;5014005;28;20675;-61
2022/07/26 02:55:59;;;;;;;1.60;1.50;;;;;;;19.59;84.21;98638.63;5014171;28;20185;-61
2022/07/26 02:58:26;;;;;;;3.70;1.90;;;;;;;19.65;84.66;98637.78;4995963;28;20198;-61
2022/07/26 03:00:53;;;;;;;2.30;1.90;;;;;;;19.61;85.77;98642.69;5014216;28;20184;-61
2022/07/26 03:03:21;;;;;;;2.80;1.77;;;;;;;19.63;85.59;98645.13;5013728;28;20562;-61
2022/07/26 03:05:48;;;;;;;5.03;1.90;;;;;;;19.65;83.24;98640.41;5012604;28;20206;-61
2022/07/26 03:08:15;;;;;;;3.27;1.70;;;;;;;19.70;82.86;98648.56;4996166;28;20662;-61
2022/07/26 03:10:42;;;;;;;3.50;2.30;;;;;;;19.73;80.95;98637.53;5013736;28;20192;-61
2022/07/26 03:13:09;;;;;;;2.40;1.80;;;;;;;19.80;81.37;98631.41;5013450;28;20212;-61
2022/07/26 03:15:36;;;;;;;5.93;2.57;;;;;;;19.76;79.92;98623.09;5015732;28;20185;-61
2022/07/26 03:18:03;;;;;;;4.13;1.80;;;;;;;19.78;80.10;98628.97;5033353;28;20190;-61
2022/07/26 03:20:31;;;;;;;3.33;1.77;;;;;;;19.77;78.51;98635.31;5033093;28;20231;-61
2022/07/26 03:22:57;;;;;;;2.03;1.67;;;;;;;19.82;78.70;98632.00;5033062;28;20680;-61
2022/07/26 03:25:24;;;;;;;2.37;1.70;;;;;;;19.86;77.70;98639.34;5015377;28;20263;-61
2022/07/26 03:27:55;;;;;;;5.20;2.00;;;;;;;19.81;78.13;98639.16;5033375;28;20196;-61
2022/07/26 03:30:22;;;;;;;2.27;1.97;;;;;;;19.75;78.63;98640.00;5028981;28;20193;-61
2022/07/26 03:32:49;;;;;;;2.63;1.70;;;;;;;19.72;79.64;98646.50;5013203;28;20213;-61
2022/07/26 03:35:35;;;;;;;5.43;2.27;;;;;;;19.65;79.68;98652.88;5013699;28;20291;-61
2022/07/26 03:38:02;;;;;;;4.40;1.90;;;;;;;19.60;78.19;98654.31;5012738;28;20209;-61
2022/07/26 03:40:29;;;;;;;3.47;1.60;;;;;;;19.60;79.23;98648.22;5013171;28;20595;-61
2022/07/26 03:42:56;;;;;;;6.27;2.07;;;;;;;19.48;79.03;98645.38;5013035;28;20376;-62
2022/07/26 03:45:23;;;;;;;5.77;2.03;;;;;;;19.42;79.64;98641.75;5013122;28;20192;-61
2022/07/26 03:47:50;;;;;;;3.63;2.00;;;;;;;19.38;80.41;98645.00;5012928;28;20593;-61
2022/07/26 03:50:17;;;;;;;2.50;1.70;;;;;;;19.38;80.17;98653.78;5012875;28;20243;-61
2022/07/26 03:52:45;;;;;;;4.00;1.60;;;;;;;19.33;79.50;98657.00;5012633;28;20202;-61
2022/07/26 03:57:56;;;;;;;2.17;1.60;;;;;;;19.29;79.98;98658.44;5013029;28;20195;-61
2022/07/26 04:00:23;;;;;;;5.53;1.60;;;;;;;19.37;78.65;98660.09;5012913;28;20205;-61
2022/07/26 04:02:50;;;;;;;3.43;1.60;;;;;;;19.48;77.51;98663.91;5012416;28;20685;-61
2022/07/26 04:05:17;;;;;;;4.63;1.57;;;;;;;19.46;76.02;98658.84;5012878;28;20215;-61
2022/07/26 04:07:46;;;;;;;3.70;1.70;;;;;;;19.45;74.22;98661.69;5010642;28;20194;-61
2022/07/26 04:10:14;;;;;;;2.60;1.77;;;;;;;19.44;75.97;98668.81;4997243;28;20197;-61
2022/07/26 04:12:41;;;;;;;4.77;2.20;;;;;;;19.45;72.70;98673.09;5029778;28;20208;-61
2022/07/26 04:15:09;;;;;;;3.73;1.70;;;;;;;19.45;72.81;98667.78;5032063;28;20186;-61
2022/07/26 04:17:39;;;;;;;3.27;1.90;;;;;;;19.55;72.15;98677.94;5032167;28;20214;-61
2022/07/26 04:20:07;;;;;;;2.80;1.50;;;;;;;19.51;71.92;98676.72;5014222;28;20312;-61
2022/07/26 04:22:34;;;;;;;5.00;1.70;;;;;;;19.50;73.05;98666.38;5031789;28;20205;-61
2022/07/26 04:25:04;;;;;;;5.37;1.50;;;;;;;19.54;72.17;98667.56;5032301;28;20614;-61
2022/07/26 04:27:34;;;;;;;3.90;1.60;;;;;;;19.57;71.85;98681.19;5032262;28;20195;-61
2022/07/26 04:30:01;;;;;;;4.37;1.43;;;;;;;19.57;70.76;98681.19;5030699;28;20183;-61
2022/07/26 04:32:28;;;;;;;2.53;1.40;;;;;;;19.65;71.04;98682.78;5012091;28;20206;-61
2022/07/26 04:34:54;;;;;;;4.67;2.23;;;;;;;19.66;70.68;98688.91;5012518;28;20635;-61
2022/07/26 04:37:21;;;;;;;7.23;1.90;;;;;;;19.70;68.94;98692.78;5011910;28;20184;-61
2022/07/26 04:39:48;;;;;;;3.77;1.67;;;;;;;19.77;69.13;98696.22;5009720;28;20211;-61
2022/07/26 04:42:16;;;;;;;2.37;1.30;;;;;;;19.73;68.06;98700.31;5008606;28;20580;-61
2022/07/26 04:44:43;;;;;;;3.60;1.50;;;;;;;19.74;68.82;98696.63;5031504;28;20559;-61
2022/07/26 04:47:10;;;;;;;5.57;1.83;;;;;;;19.77;67.90;98701.50;5031833;28;20192;-61
2022/07/26 04:49:36;;;;;;;2.23;1.20;;;;;;;19.84;68.58;98702.31;5031746;28;20185;-61
2022/07/26 04:52:03;;;;;;;4.53;1.40;;;;;;;19.85;67.61;98706.56;5031376;28;20220;-61
2022/07/26 04:54:30;;;;;;;4.80;1.77;;;;;;;19.87;65.43;98712.47;5031714;28;20195;-61
2022/07/26 04:56:57;;;;;;;5.47;1.40;;;;;;;19.82;65.72;98708.81;5014200;28;20696;-61
2022/07/26 04:59:25;;;;;;;5.47;1.53;;;;;;;19.63;66.45;98708.66;5009848;28;20220;-61
2022/07/26 05:01:52;;;;;;;2.50;1.50;;;;;;;19.67;66.13;98717.81;5025501;28;20740;-61
2022/07/26 05:04:18;;;;;;;3.13;1.70;;;;;;;19.60;66.25;98706.47;5031652;28;20214;-61
2022/07/26 05:06:45;;;;;;;8.10;1.80;;;;;;;19.61;67.21;98714.19;5031497;28;20184;-61
2022/07/26 05:09:12;;;;;;;4.37;1.73;;;;;;;19.62;66.48;98710.50;5025092;28;20204;-61
2022/07/26 05:11:57;;;;;;;3.93;1.30;;;;;;;19.69;67.21;98714.97;5023308;28;20233;-61
2022/07/26 05:14:25;;;;;;;5.33;1.50;;;;;;;19.70;66.64;98721.91;5031108;28;20271;-61
2022/07/26 05:16:52;;;;;;;4.63;1.00;;;;;;;19.72;65.83;98731.25;5013883;28;20188;-61
2022/07/26 05:19:19;;;;;;;5.67;1.20;;;;;;;19.69;65.29;98730.88;5031499;28;20275;-61
2022/07/26 05:21:46;;;;;;;4.33;1.40;;;;;;;19.67;64.69;98722.31;5034168;28;20663;-61
2022/07/26 05:24:13;;;;;;;3.70;1.20;;;;;;;19.73;65.41;98729.44;5035420;28;20194;-61
2022/07/26 05:26:39;;;;;;;3.13;1.30;;;;;;;19.73;65.08;98732.88;5035509;28;20244;-61
2022/07/26 05:29:06;;;;;;;4.53;1.33;;;;;;;19.82;65.58;98730.00;5035263;28;20558;-61
2022/07/26 05:31:34;;;;;;;4.70;1.30;;;;;;;19.90;64.69;98738.59;5031123;28;20200;-61
2022/07/26 05:34:02;;;;;;;3.93;1.20;;;;;;;19.87;63.67;98743.44;5035372;28;20192;-61
2022/07/26 05:36:29;;;;;;;3.80;1.17;;;;;;;19.88;62.17;98739.75;5017433;28;20207;-61
2022/07/26 05:38:55;;;;;;;2.53;1.03;;;;;;;19.88;62.64;98745.06;5022421;28;20259;-61
2022/07/26 05:41:22;;;;;;;3.17;1.40;;;;;;;19.97;63.73;98737.75;5015398;28;20226;-61
2022/07/26 05:43:49;;;;;;;2.03;1.20;;;;;;;20.09;63.47;98745.84;5015310;28;20211;-61
2022/07/26 05:46:16;;;;;;;3.88;1.23;;;;;;;20.28;63.18;98744.13;5014398;28;20438;-61
2022/07/26 05:48:44;;;;;;;3.17;1.17;;;;;;;20.42;63.04;98732.44;5015481;28;20186;-61
2022/07/26 05:51:11;;;;;;;3.83;1.10;;;;;;;20.49;62.32;98733.19;5015268;28;20593;-61
2022/07/26 05:53:38;;;;;;;4.90;1.30;;;;;;;20.55;61.67;98734.22;5015097;28;20205;-61
2022/07/26 05:56:06;;;;;;;4.93;1.30;;;;;;;20.86;60.76;98737.88;5015238;28;20657;-61
2022/07/26 05:58:33;;;;;;;4.47;1.40;;;;;;;21.03;59.27;98734.72;5015231;28;20192;-61
2022/07/26 06:01:00;;;;;;;2.53;1.60;;;;;;;21.21;59.27;98734.75;5015164;28;20509;-61
2022/07/26 06:03:27;;;;;;;4.50;1.20;;;;;;;21.44;58.38;98730.69;5014727;28;20694;-61
2022/07/26 06:05:57;;;;;;;3.40;1.40;;;;;;;21.64;57.92;98738.47;5027434;28;20194;-61
2022/07/26 06:08:26;;;;;;;4.03;1.23;;;;;;;21.68;58.77;98739.66;5026305;28;20195;-61
2022/07/26 06:10:53;;;;;;;3.80;1.20;;;;;;;21.52;55.58;98737.53;5014900;28;20237;-61
2022/07/26 06:13:20;;;;;;;3.30;1.00;;;;;;;21.62;55.17;98737.88;5014596;28;20217;-61
2022/07/26 06:15:47;;;;;;;5.23;1.00;;;;;;;21.55;53.83;98737.09;5015022;28;20196;-61
2022/07/26 06:18:14;;;;;;;3.13;1.00;;;;;;;21.53;54.65;98740.00;5014869;28;20627;-61
2022/07/26 06:20:42;;;;;;;2.53;1.10;;;;;;;21.57;55.08;98739.53;5014848;28;20224;-61
2022/07/26 06:23:11;;;;;;;4.77;1.07;;;;;;;21.68;54.42;98741.50;5014499;28;20822;-61
2022/07/26 06:25:39;;;;;;;5.00;1.10;;;;;;;21.85;54.49;98746.22;5014804;28;20206;-61
2022/07/26 06:28:07;;;;;;;2.37;1.17;;;;;;;21.88;54.70;98749.25;5014626;28;20187;-61
2022/07/26 06:30:35;;;;;;;3.93;1.00;;;;;;;21.79;51.38;98748.72;5013898;28;20270;-61
2022/07/26 06:33:02;;;;;;;4.97;1.33;;;;;;;22.04;50.85;98747.81;4995658;28;20204;-61
2022/07/26 06:35:30;;;;;;;1.27;0.70;;;;;;;22.25;50.46;98751.06;4996776;28;20190;-61
2022/07/26 06:37:58;;;;;;;6.13;1.27;;;;;;;22.17;51.13;98754.84;5014423;28;20557;-61
2022/07/26 06:40:26;;;;;;;5.07;1.30;;;;;;;22.21;51.74;98753.38;5012921;28;20738;-61
2022/07/26 06:42:53;;;;;;;4.53;1.30;;;;;;;22.04;53.59;98753.16;5014610;28;20225;-61
2022/07/26 06:45:20;;;;;;;3.50;1.43;;;;;;;22.04;53.65;98761.13;5022466;28;20194;-61
2022/07/26 06:47:47;;;;;;;6.87;1.20;;;;;;;21.97;52.02;98761.22;5025757;28;20189;-61
2022/07/26 06:50:14;;;;;;;3.73;1.03;;;;;;;21.76;54.02;98767.75;5033772;28;20550;-61
2022/07/26 06:52:41;;;;;;;4.53;1.13;;;;;;;21.76;52.89;98761.66;5033679;28;20280;-61
2022/07/26 06:55:08;;;;;;;4.70;1.17;;;;;;;21.95;52.37;98757.13;5033796;28;20589;-61
2022/07/26 06:57:36;;;;;;;2.73;0.97;;;;;;;22.10;52.46;98756.78;5033608;28;20235;-61
2022/07/26 07:00:04;;;;;;;1.93;1.00;;;;;;;22.33;50.96;98764.03;5032196;28;20254;-61
2022/07/26 07:02:31;;;;;;;5.07;1.20;;;;;;;22.52;50.18;98761.38;5031125;28;20576;-61
2022/07/26 07:04:58;;;;;;;3.60;0.90;;;;;;;22.56;50.46;98760.69;5033370;28;20210;-61
2022/07/26 07:07:25;;;;;;;3.07;1.17;;;;;;;22.49;51.20;98749.31;5033767;28;20186;-61
2022/07/26 07:09:52;;;;;;;1.67;0.90;;;;;;;22.92;48.91;98759.97;5019770;28;20187;-61
2022/07/26 07:12:19;;;;;;;5.30;1.60;;;;;;;22.77;48.59;98753.22;5013529;28;20210;-61
2022/07/26 07:14:47;;;;;;;4.23;0.87;;;;;;;22.66;48.59;98752.19;5013683;28;20209;-61
2022/07/26 07:17:18;;;;;;;2.53;0.80;;;;;;;22.60;50.43;98744.28;5013659;28;20685;-61
2022/07/26 07:19:45;;;;;;;3.73;0.77;;;;;;;22.80;48.23;98751.97;4995891;28;20661;-62
2022/07/26 07:22:12;;;;;;;3.47;0.90;;;;;;;22.76;48.87;98748.94;5012434;28;20206;-62
2022/07/26 07:24:40;;;;;;;1.80;0.90;;;;;;;22.96;48.28;98756.63;4998153;28;20203;-61
2022/07/26 07:27:07;;;;;;;2.73;1.20;;;;;;;22.99;47.33;98760.69;5015263;28;20188;-61
2022/07/26 07:29:34;;;;;;;4.17;0.97;;;;;;;22.73;50.65;98768.03;5010643;28;20192;-61
2022/07/26 07:32:02;;;;;;;4.10;0.90;;;;;;;22.77;50.23;98757.75;5012583;28;20796;-61
2022/07/26 07:34:29;;;;;;;2.73;1.20;;;;;;;22.85;49.40;98758.22;5016702;28;20199;-61
2022/07/26 07:36:55;;;;;;;1.70;0.80;;;;;;;22.59;50.41;98759.44;5010908;28;20207;-61
2022/07/26 07:39:22;;;;;;;4.80;1.23;;;;;;;22.49;50.25;98756.50;5014250;28;20660;-61
2022/07/26 07:41:49;;;;;;;3.70;0.97;;;;;;;22.45;50.75;98761.44;5015843;28;20494;-61
2022/07/26 07:44:16;;;;;;;4.63;1.00;;;;;;;22.55;49.76;98760.94;5011490;28;20195;-64
2022/07/26 07:46:43;;;;;;;3.40;0.80;;;;;;;22.63;50.17;98762.44;5016439;28;20190;-56
2022/07/26 07:49:11;;;;;;;1.30;0.90;;;;;;;22.66;49.90;98767.31;5015138;28;20210;-61
2022/07/26 07:51:38;;;;;;;2.33;0.80;;;;;;;22.54;50.72;98760.09;5016347;28;20196;-61
2022/07/26 07:54:05;;;;;;;6.10;1.00;;;;;;;22.42;50.87;98759.22;5015062;28;20199;-61
2022/07/26 07:56:32;;;;;;;4.37;1.07;;;;;;;22.46;50.76;98760.41;5016179;28;20194;-61
2022/07/26 07:58:58;;;;;;;2.00;0.90;;;;;;;22.29;51.00;98754.88;5015187;28;20566;-61
2022/07/26 08:01:25;;;;;;;5.17;0.90;;;;;;;22.33;51.85;98755.25;4999112;28;20227;-61
2022/07/26 08:03:52;;;;;;;4.07;0.90;;;;;;;22.18;51.31;98760.97;5014447;28;20227;-62
2022/07/26 08:06:20;;;;;;;3.17;0.80;;;;;;;21.95;50.77;98759.78;5008918;28;20241;-62
2022/07/26 08:08:47;;;;;;;2.37;0.70;;;;;;;21.79;52.53;98753.22;5004593;28;23203;-62
2022/07/26 08:11:13;;;;;;;1.97;1.00;;;;;;;21.76;51.98;98762.44;5005219;28;20715;-62
2022/07/26 08:13:40;;;;;;;3.23;0.90;;;;;;;21.75;53.18;98757.38;5004093;28;20465;-61
2022/07/26 08:16:08;;;;;;;2.30;1.00;;;;;;;21.79;52.29;98753.22;5005245;28;20227;-61
2022/07/26 08:18:53;;;;;;;2.87;1.03;;;;;;;21.77;51.80;98750.78;5006280;28;20230;-61
2022/07/26 08:21:21;;;;;;;3.67;1.00;;;;;;;21.86;52.29;98746.00;5009308;28;20246;-61
2022/07/26 08:23:48;;;;;;;4.00;1.13;;;;;;;22.10;51.63;98751.47;5014725;28;20214;-61
2022/07/26 08:26:15;;;;;;;2.03;0.70;;;;;;;22.10;52.46;98754.91;5030125;28;20693;-61
2022/07/26 08:28:42;;;;;;;1.63;0.70;;;;;;;22.15;51.25;98756.91;5015016;28;20181;-60
2022/07/26 08:31:08;;;;;;;6.17;0.70;;;;;;;22.23;50.99;98753.97;5007169;28;20190;-61
2022/07/26 08:33:35;;;;;;;2.73;0.90;;;;;;;22.18;49.81;98761.78;5007216;28;20233;-59
2022/07/26 08:36:02;;;;;;;3.20;1.00;;;;;;;22.12;51.59;98760.81;5008210;28;20190;-59
2022/07/26 08:38:30;;;;;;;2.07;0.80;;;;;;;22.18;50.03;98758.31;5022135;28;20262;-59
2022/07/26 08:40:58;;;;;;;3.80;1.20;;;;;;;21.96;50.61;98758.75;5011862;28;20212;-59
2022/07/26 08:43:25;;;;;;;4.40;0.87;;;;;;;21.97;50.88;98763.03;5011408;28;20201;-59
2022/07/26 08:45:59;;;;;;;3.93;1.00;;;;;;;22.20;50.47;98765.03;5011620;28;20194;-59
2022/07/26 08:48:26;;;;;;;2.23;0.70;;;;;;;22.39;49.54;98764.97;5011815;28;20523;-59
2022/07/26 08:50:54;;;;;;;4.50;0.83;;;;;;;22.50;49.83;98763.47;5011723;28;20194;-59
2022/07/26 08:53:22;;;;;;;2.67;0.90;;;;;;;22.66;49.93;98767.31;5011202;28;20237;-59
2022/07/26 08:55:56;;;;;;;4.97;0.87;;;;;;;22.59;49.23;98770.09;5030700;28;20197;-59
2022/07/26 08:58:23;;;;;;;1.97;0.80;;;;;;;22.35;49.29;98772.63;5012816;28;20602;-59
2022/07/26 09:01:04;;;;;;;2.33;1.00;;;;;;;22.76;48.71;98762.25;5012982;28;20445;-59
2022/07/26 09:03:31;;;;;;;5.20;0.97;;;;;;;22.52;49.43;98762.19;5030752;28;20248;-59
2022/07/26 09:06:11;;;;;;;2.27;0.80;;;;;;;22.69;48.09;98774.84;5031206;28;20517;-58
2022/07/26 09:08:38;;;;;;;1.50;0.67;;;;;;;22.74;48.12;98772.31;5027275;28;20218;-59
2022/07/26 09:11:27;;;;;;;1.43;0.67;;;;;;;22.63;47.89;98768.59;5011237;28;20195;-59
2022/07/26 09:13:55;;;;;;;2.97;0.80;;;;;;;22.83;47.69;98767.47;5011371;28;20681;-59
2022/07/26 09:16:22;;;;;;;2.60;0.90;;;;;;;22.78;48.25;98786.00;5011386;28;20194;-59
2022/07/26 09:18:49;;;;;;;2.80;0.80;;;;;;;22.78;47.79;98778.81;5011395;28;20182;-59
2022/07/26 09:21:27;;;;;;;2.03;0.77;;;;;;;23.23;46.90;98774.06;5011163;28;20222;-59
2022/07/26 09:23:54;;;;;;;2.80;0.93;;;;;;;23.57;45.56;98774.28;5011137;28;20674;-59
2022/07/26 09:26:22;;;;;;;6.33;1.00;;;;;;;23.37;45.95;98780.78;5011230;28;20192;-59
2022/07/26 09:29:03;;;;;;;1.67;0.67;;;;;;;23.96;44.38;98784.44;5011101;28;20195;-59
2022/07/26 09:31:30;;;;;;;1.80;0.73;;;;;;;24.02;44.09;98791.53;5010511;28;20207;-59
2022/07/26 09:33:58;;;;;;;1.60;0.80;;;;;;;24.24;43.80;98781.06;5011116;28;20468;-59
2022/07/26 09:36:27;;;;;;;2.70;0.70;;;;;;;23.98;43.71;98780.50;5011159;28;20542;-59
2022/07/26 09:38:57;;;;;;;2.23;0.57;;;;;;;24.03;44.29;98780.66;5010742;28;20204;-59
2022/07/26 09:41:27;;;;;;;1.63;0.80;;;;;;;24.23;44.18;98782.09;5010977;28;20216;-59
2022/07/26 09:43:55;;;;;;;1.07;0.60;;;;;;;23.54;43.92;98788.06;5011062;28;20188;-59
2022/07/26 09:46:24;;;;;;;4.40;0.80;;;;;;;23.84;42.67;98779.13;5011060;28;20195;-59
2022/07/26 09:48:51;;;;;;;1.90;0.67;;;;;;;23.89;43.51;98774.72;5010962;28;20225;-59
2022/07/26 09:51:35;;;;;;;3.57;0.77;;;;;;;23.86;42.98;98771.72;5026969;28;20199;-59
2022/07/26 09:54:02;;;;;;;1.60;0.80;;;;;;;23.82;43.96;98786.56;5017877;28;20278;-59
2022/07/26 09:56:42;;;;;;;1.73;0.83;;;;;;;23.10;44.39;98783.03;5030626;28;20194;-59
2022/07/26 09:59:09;;;;;;;1.30;0.60;;;;;;;23.33;44.29;98779.59;5030558;28;20194;-59
2022/07/26 10:01:36;;;;;;;3.13;0.67;;;;;;;23.41;44.99;98778.47;5030342;28;20211;-59
2022/07/26 10:04:03;;;;;;;1.47;0.67;;;;;;;23.39;44.52;98784.00;5030267;28;20271;-60
2022/07/26 10:06:30;;;;;;;1.23;0.50;;;;;;;22.80;44.51;98783.88;5030703;28;20191;-60
2022/07/26 10:08:57;;;;;;;2.10;0.60;;;;;;;22.87;44.09;98783.81;5009146;28;20229;-60
2022/07/26 10:11:26;;;;;;;0.97;0.50;;;;;;;23.10;43.77;98791.03;5014547;28;20552;-59
2022/07/26 10:13:56;;;;;;;1.20;0.40;;;;;;;22.91;42.80;98772.47;4996413;28;20207;-59
2022/07/26 10:16:30;;;;;;;0.93;0.50;;;;;;;23.13;41.10;98787.91;5014221;28;20223;-59
2022/07/26 10:19:38;;;;;;;3.13;0.70;;;;;;;23.10;41.52;98789.19;5014339;28;20568;-59
2022/07/26 10:22:23;;;;;;;1.50;0.50;;;;;;;23.10;43.74;98775.88;5012365;28;20231;-59
2022/07/26 10:24:49;;;;;;;0.60;0.50;;;;;;;23.43;42.81;98782.50;5014277;28;20186;-59
2022/07/26 10:27:37;;;;;;;2.90;0.73;;;;;;;23.64;41.08;98782.19;5014031;28;20189;-59
2022/07/26 10:30:24;;;;;;;1.23;0.67;;;;;;;23.86;40.64;98771.72;5013514;28;20189;-59
2022/07/26 10:32:59;;;;;;;4.00;0.60;;;;;;;24.34;39.86;98772.44;5013711;28;20215;-59
2022/07/26 10:35:29;;;;;;;0.90;0.70;;;;;;;24.26;40.39;98768.28;5013922;28;20278;-59
2022/07/26 10:38:01;;;;;;;2.20;0.73;;;;;;;24.41;39.68;98772.28;5013541;28;20194;-59
2022/07/26 10:40:29;;;;;;;1.67;0.60;;;;;;;23.96;39.62;98777.28;5013955;28;20196;-59
2022/07/26 10:43:13;;;;;;;2.60;0.90;;;;;;;24.41;39.80;98774.94;4995699;28;20228;-59
2022/07/26 10:45:42;;;;;;;1.53;0.60;;;;;;;24.32;39.94;98782.53;5016535;28;20201;-59
2022/07/26 10:48:14;;;;;;;1.50;0.60;;;;;;;24.09;40.04;98773.53;5033400;28;20189;-59
2022/07/26 10:50:42;;;;;;;1.87;0.70;;;;;;;24.25;39.78;98787.19;4999066;28;20204;-59
2022/07/26 10:53:10;;;;;;;1.10;0.67;;;;;;;23.93;41.00;98777.72;5013247;28;20215;-59
2022/07/26 10:55:52;;;;;;;1.30;0.60;;;;;;;23.75;41.87;98778.69;5013686;28;20251;-59
2022/07/26 10:58:19;;;;;;;1.67;0.60;;;;;;;24.18;40.87;98776.66;5013756;28;20191;-59
2022/07/26 11:00:59;;;;;;;1.20;0.50;;;;;;;24.82;39.88;98781.06;5013435;28;20264;-59
2022/07/26 11:03:35;;;;;;;3.00;0.60;;;;;;;24.90;37.85;98778.00;5012892;28;20732;-59
2022/07/26 11:06:10;;;;;;;2.30;0.60;;;;;;;24.84;38.22;98780.84;5013515;28;20210;-60
2022/07/26 11:08:36;;;;;;;1.73;0.60;;;;;;;24.91;37.71;98789.47;5029560;28;20726;-61
2022/07/26 11:11:03;;;;;;;1.53;0.57;;;;;;;25.44;38.18;98781.22;5013350;28;20193;-59
2022/07/26 11:13:49;;;;;;;3.73;0.60;;;;;;;25.74;36.80;98778.19;5012972;28;20274;-61
2022/07/26 11:16:17;;;;;;;1.87;0.67;;;;;;;25.89;35.80;98769.59;5013145;28;20550;-62
2022/07/26 11:18:44;;;;;;;1.23;0.47;;;;;;;26.02;35.45;98770.25;5012715;28;20562;-61
2022/07/26 11:21:12;;;;;;;2.43;0.60;;;;;;;25.66;36.18;98778.63;5012994;28;20217;-61
2022/07/26 11:23:42;;;;;;;5.80;0.70;;;;;;;25.59;36.44;98753.94;4995117;28;20205;-60
2022/07/26 11:26:13;;;;;;;1.17;0.70;;;;;;;25.66;36.63;98764.47;5012874;28;20217;-60
2022/07/26 11:28:52;;;;;;;3.27;0.70;;;;;;;25.36;36.84;98763.75;5012631;28;20671;-60
2022/07/26 11:31:22;;;;;;;3.57;0.87;;;;;;;25.10;37.29;98758.03;5012559;28;20276;-60
2022/07/26 11:33:50;;;;;;;1.23;0.50;;;;;;;25.26;37.10;98759.06;5012758;28;20285;-60
2022/07/26 11:36:18;;;;;;;1.50;0.60;;;;;;;24.54;37.75;98757.84;5012842;28;20201;-61
2022/07/26 11:38:47;;;;;;;2.00;0.63;;;;;;;24.43;38.72;98760.34;4991674;28;20190;-61
2022/07/26 11:41:15;;;;;;;2.73;0.70;;;;;;;24.70;38.65;98761.59;4993420;28;20708;-61
2022/07/26 11:43:42;;;;;;;1.80;0.60;;;;;;;24.96;37.60;98760.19;5031456;28;20215;-61